Time;durP1;ratioP1;P1;durP2;ratioP2;P2;SDS_P1;SDS_P2;PMS_P1;PMS_P2;Temp;Humidity;BMP_temperature;BMP_pressure;BME280_temperature;BME280_humidity;BME280_pressure;Samples;Min_cycle;Max_cycle;Signal;HPM_P1;HPM_P2
2022/08/04 00:00:09;;;;;;;4.03;2.63;;;;;;;25.70;41.85;100778.88;5033230;28;20464;-75
2022/08/04 00:03:18;;;;;;;5.13;2.85;;;;;;;25.65;42.48;100779.19;5033171;28;20049;-75
2022/08/04 00:05:46;;;;;;;6.03;2.92;;;;;;;25.62;42.11;100781.31;5033099;28;20060;-75
2022/08/04 00:08:20;;;;;;;4.10;2.63;;;;;;;25.62;42.12;100779.47;5033210;28;20037;-74
2022/08/04 00:10:50;;;;;;;4.93;2.80;;;;;;;25.57;42.16;100784.34;5032909;28;20026;-74
2022/08/04 00:13:20;;;;;;;3.90;2.60;;;;;;;25.53;42.16;100781.06;5032896;28;20487;-75
2022/08/04 00:15:50;;;;;;;3.72;2.67;;;;;;;25.49;42.49;100782.28;5015665;28;20033;-74
2022/08/04 00:18:18;;;;;;;4.55;2.42;;;;;;;25.48;42.50;100785.06;5031724;28;20030;-74
2022/08/04 00:20:44;;;;;;;6.25;2.50;;;;;;;25.44;42.42;100787.13;5032912;28;20529;-74
2022/08/04 00:23:10;;;;;;;3.90;2.50;;;;;;;25.40;42.83;100791.03;5016522;28;20120;-75
2022/08/04 00:25:40;;;;;;;5.28;2.60;;;;;;;25.42;42.97;100794.47;5035267;28;20057;-75
2022/08/04 00:28:05;;;;;;;5.13;2.70;;;;;;;25.43;42.97;100792.63;5036613;28;20024;-74
2022/08/04 00:30:31;;;;;;;4.18;2.40;;;;;;;25.40;42.91;100798.25;5018716;28;20034;-74
2022/08/04 00:32:57;;;;;;;5.25;2.75;;;;;;;25.38;42.83;100789.47;5036421;28;20025;-75
2022/08/04 00:35:23;;;;;;;3.63;2.60;;;;;;;25.30;42.99;100788.22;5018919;28;20025;-75
2022/08/04 00:37:49;;;;;;;5.13;3.10;;;;;;;25.28;43.23;100790.13;5035828;28;20116;-74
2022/08/04 00:40:30;;;;;;;6.43;2.60;;;;;;;25.24;43.65;100787.81;5036110;28;20037;-74
2022/08/04 00:43:23;;;;;;;6.03;2.85;;;;;;;25.17;43.88;100783.88;5035575;28;20456;-74
2022/08/04 00:45:52;;;;;;;3.67;2.33;;;;;;;25.12;43.36;100784.22;5035105;28;20120;-75
2022/08/04 00:49:02;;;;;;;4.18;2.42;;;;;;;25.07;44.48;100786.38;5034759;28;20033;-74
2022/08/04 00:51:45;;;;;;;5.70;2.60;;;;;;;25.03;44.36;100779.53;5035192;28;20037;-74
2022/08/04 00:54:42;;;;;;;3.63;2.85;;;;;;;25.00;44.12;100780.59;5036190;28;20052;-74
2022/08/04 00:57:37;;;;;;;4.15;2.53;;;;;;;24.98;44.10;100779.03;5035778;28;20053;-74
2022/08/04 01:00:08;;;;;;;3.67;2.47;;;;;;;24.99;43.73;100780.72;5034640;28;20075;-74
2022/08/04 01:03:12;;;;;;;3.35;2.50;;;;;;;24.99;44.50;100772.66;5035771;28;20029;-74
2022/08/04 01:06:12;;;;;;;3.63;2.38;;;;;;;24.98;44.48;100770.97;5034459;28;20433;-74
2022/08/04 01:09:07;;;;;;;5.40;2.72;;;;;;;24.99;44.48;100776.22;5034482;28;20022;-75
2022/08/04 01:11:56;;;;;;;5.07;2.30;;;;;;;24.97;44.67;100780.81;5027709;28;20121;-75
2022/08/04 01:14:56;;;;;;;5.88;3.00;;;;;;;24.90;44.91;100776.06;5034428;28;20112;-74
2022/08/04 01:17:33;;;;;;;5.75;2.70;;;;;;;24.88;44.65;100780.69;5035646;28;20025;-75
2022/08/04 01:20:07;;;;;;;4.03;2.70;;;;;;;24.85;44.53;100771.00;5034314;28;20029;-74
2022/08/04 01:22:33;;;;;;;4.43;2.85;;;;;;;24.85;44.40;100770.16;5035384;28;20462;-74
2022/08/04 01:25:20;;;;;;;7.32;2.75;;;;;;;24.81;44.84;100772.22;5034143;28;20120;-74
2022/08/04 01:28:04;;;;;;;3.42;2.50;;;;;;;24.78;44.78;100776.00;5035420;28;20562;-74
2022/08/04 01:30:32;;;;;;;6.30;3.17;;;;;;;24.75;44.36;100781.59;5035133;28;20037;-74
2022/08/04 01:33:20;;;;;;;4.57;2.95;;;;;;;24.75;44.92;100775.38;5035290;28;20079;-74
2022/08/04 01:35:49;;;;;;;9.75;3.08;;;;;;;24.73;44.41;100780.00;5034079;28;20025;-74
2022/08/04 01:38:30;;;;;;;4.05;3.17;;;;;;;24.68;45.19;100776.78;5033664;28;20049;-74
2022/08/04 01:41:03;;;;;;;5.28;2.85;;;;;;;24.67;44.77;100775.94;5035071;28;20040;-74
2022/08/04 01:43:32;;;;;;;5.15;3.08;;;;;;;24.65;44.81;100774.31;5035048;28;20033;-74
2022/08/04 01:46:00;;;;;;;4.63;3.05;;;;;;;24.63;44.72;100770.91;5035112;28;20107;-74
2022/08/04 01:48:27;;;;;;;5.13;2.88;;;;;;;24.60;44.95;100777.34;5035131;28;20427;-74
2022/08/04 01:50:56;;;;;;;3.95;2.60;;;;;;;24.56;45.03;100775.88;5035009;28;20489;-74
2022/08/04 01:53:28;;;;;;;6.03;3.47;;;;;;;24.51;45.08;100778.06;5034770;28;20044;-74
2022/08/04 01:55:55;;;;;;;5.60;3.40;;;;;;;24.46;45.26;100777.53;5034886;28;20025;-74
2022/08/04 01:58:24;;;;;;;4.43;2.90;;;;;;;24.44;45.13;100774.09;5035007;28;20075;-74
2022/08/04 02:01:16;;;;;;;7.40;3.40;;;;;;;24.40;45.65;100784.19;5034818;28;20057;-74
2022/08/04 02:03:44;;;;;;;4.97;3.28;;;;;;;24.35;45.15;100778.28;5034032;28;20045;-74
2022/08/04 02:06:30;;;;;;;3.83;2.70;;;;;;;24.31;45.77;100780.34;5033309;28;20022;-74
2022/08/04 02:09:23;;;;;;;4.82;3.20;;;;;;;24.26;46.28;100777.13;5034449;28;20454;-74
2022/08/04 02:12:04;;;;;;;9.35;3.00;;;;;;;24.23;46.00;100780.03;5033129;28;20045;-74
2022/08/04 02:14:44;;;;;;;4.75;3.22;;;;;;;24.18;46.50;100787.56;5034523;28;20034;-74
2022/08/04 02:17:14;;;;;;;4.38;3.00;;;;;;;24.21;45.86;100781.09;5034476;28;20100;-74
2022/08/04 02:20:10;;;;;;;5.78;2.90;;;;;;;24.18;46.22;100784.88;5033045;28;20045;-74
2022/08/04 02:22:51;;;;;;;6.43;2.60;;;;;;;24.15;46.47;100777.03;5033058;28;20017;-75
2022/08/04 02:25:24;;;;;;;4.47;2.80;;;;;;;24.17;46.59;100777.78;5033129;28;20021;-75
2022/08/04 02:28:08;;;;;;;;;;;;;;;24.17;46.81;100783.16;5033558;28;20115;-75
2022/08/04 02:30:42;;;;;;;4.68;2.70;;;;;;;24.11;46.39;100772.00;5034371;28;19917;-74
2022/08/04 02:33:11;;;;;;;4.22;2.90;;;;;;;24.13;45.91;100776.28;5034294;28;20104;-75
2022/08/04 02:35:40;;;;;;;9.90;3.25;;;;;;;24.13;46.00;100768.22;5033017;28;20076;-74
2022/08/04 02:38:17;;;;;;;5.75;2.70;;;;;;;24.12;46.00;100777.25;5033962;28;20056;-74
2022/08/04 02:40:45;;;;;;;4.47;2.60;;;;;;;24.12;46.09;100761.16;5034094;28;20033;-74
2022/08/04 02:43:14;;;;;;;5.68;3.03;;;;;;;24.08;46.08;100767.72;5033881;28;20091;-74
2022/08/04 02:45:42;;;;;;;5.43;3.05;;;;;;;24.03;46.13;100769.88;5033608;28;20083;-74
2022/08/04 02:48:10;;;;;;;4.05;2.85;;;;;;;24.01;46.35;100761.06;5034027;28;20104;-75
2022/08/04 02:50:38;;;;;;;6.88;3.40;;;;;;;23.99;46.39;100758.50;5033798;28;20377;-74
2022/08/04 02:53:04;;;;;;;6.28;3.63;;;;;;;23.97;46.35;100762.25;5032621;28;20057;-74
2022/08/04 02:55:32;;;;;;;4.88;2.95;;;;;;;23.96;46.53;100771.28;5033745;28;20022;-75
2022/08/04 02:58:02;;;;;;;4.68;2.97;;;;;;;23.94;46.42;100765.16;5033669;28;20083;-74
2022/08/04 03:00:29;;;;;;;5.47;3.35;;;;;;;23.93;46.41;100766.97;5033564;28;20072;-74
2022/08/04 03:03:04;;;;;;;10.95;3.58;;;;;;;23.89;47.24;100765.47;5033642;28;20060;-74
2022/08/04 03:05:50;;;;;;;6.22;3.55;;;;;;;23.89;46.99;100761.94;5033775;28;20021;-74
2022/08/04 03:08:18;;;;;;;6.40;3.60;;;;;;;23.84;46.78;100763.13;5032324;28;20112;-74
2022/08/04 03:11:03;;;;;;;6.53;3.65;;;;;;;23.88;46.66;100760.22;5032169;28;20446;-74
2022/08/04 03:13:37;;;;;;;7.20;3.60;;;;;;;23.88;47.28;100768.28;5033756;28;20026;-74
2022/08/04 03:16:23;;;;;;;9.88;4.07;;;;;;;23.89;47.38;100767.31;5033462;28;20543;-73
2022/08/04 03:19:29;;;;;;;6.00;3.53;;;;;;;23.93;47.42;100768.81;5033339;28;20037;-74
2022/08/04 03:22:16;;;;;;;4.80;3.28;;;;;;;23.91;46.79;100768.94;5032184;28;20117;-74
2022/08/04 03:25:08;;;;;;;4.97;3.15;;;;;;;23.92;47.50;100772.47;5032115;28;20052;-74
2022/08/04 03:27:56;;;;;;;5.05;3.28;;;;;;;23.92;46.91;100772.47;5033487;28;20021;-75
2022/08/04 03:30:55;;;;;;;4.95;3.80;;;;;;;23.96;47.43;100765.91;5028050;28;20476;-74
2022/08/04 03:33:23;;;;;;;5.72;3.63;;;;;;;24.08;46.80;100778.44;5033539;28;20095;-74
2022/08/04 03:36:10;;;;;;;5.40;3.83;;;;;;;24.15;47.10;100777.03;5033347;28;20466;-74
2022/08/04 03:39:02;;;;;;;7.30;3.53;;;;;;;24.20;46.70;100768.66;5033170;28;20045;-75
2022/08/04 03:41:53;;;;;;;4.70;3.15;;;;;;;24.19;46.87;100766.94;5033220;28;20025;-74
2022/08/04 03:44:30;;;;;;;5.70;2.83;;;;;;;24.16;46.60;100770.69;5033211;28;20049;-74
2022/08/04 03:47:02;;;;;;;6.15;3.40;;;;;;;24.26;46.78;100769.06;5032013;28;20424;-75
2022/08/04 03:49:40;;;;;;;6.55;3.30;;;;;;;24.33;47.25;100769.47;5033181;28;20048;-74
2022/08/04 03:55:27;;;;;;;8.02;3.47;;;;;;;24.28;47.25;100766.28;5033210;28;20056;-75
2022/08/04 03:58:04;;;;;;;7.63;3.88;;;;;;;24.23;46.81;100769.28;5034026;28;20037;-74
2022/08/04 04:01:00;;;;;;;8.20;4.22;;;;;;;24.30;47.01;100772.41;5037417;28;20099;-75
2022/08/04 04:03:41;;;;;;;8.55;4.13;;;;;;;24.32;47.41;100779.34;5037184;28;20080;-75
2022/08/04 04:06:45;;;;;;;6.50;3.75;;;;;;;24.40;47.05;100776.16;5037036;28;20029;-74
2022/08/04 04:09:45;;;;;;;7.28;4.30;;;;;;;24.47;47.08;100773.88;5036964;28;20033;-74
2022/08/04 04:12:28;;;;;;;6.25;3.92;;;;;;;24.52;47.27;100779.75;5036944;28;20026;-75
2022/08/04 04:15:13;;;;;;;6.05;4.13;;;;;;;24.63;46.98;100781.66;5035424;28;20040;-75
2022/08/04 04:17:50;;;;;;;6.97;3.40;;;;;;;24.74;46.47;100790.63;5036706;28;20021;-75
2022/08/04 04:20:21;;;;;;;7.05;3.58;;;;;;;24.88;46.10;100789.59;5036522;28;20428;-75
2022/08/04 04:23:07;;;;;;;9.30;3.83;;;;;;;24.94;46.15;100789.16;5036575;28;20079;-75
2022/08/04 04:25:46;;;;;;;11.50;4.53;;;;;;;24.99;45.74;100788.78;5036687;28;20025;-74
2022/08/04 04:28:37;;;;;;;7.72;4.50;;;;;;;24.94;46.30;100780.22;5036484;28;20026;-75
2022/08/04 04:31:48;;;;;;;7.32;4.85;;;;;;;24.94;46.67;100785.59;5035154;28;20022;-75
2022/08/04 04:34:51;;;;;;;8.82;4.40;;;;;;;25.00;46.41;100793.19;5036556;28;20368;-75
2022/08/04 04:37:55;;;;;;;10.63;4.93;;;;;;;25.00;46.51;100785.13;5027697;28;20049;-74
2022/08/04 04:40:32;;;;;;;7.28;4.80;;;;;;;25.12;46.06;100788.75;5036286;28;20018;-74
2022/08/04 04:43:10;;;;;;;8.48;4.25;;;;;;;25.22;45.91;100785.25;5036104;28;20101;-75
2022/08/04 04:46:09;;;;;;;6.72;4.43;;;;;;;25.35;45.88;100781.63;5036293;28;20071;-74
2022/08/04 04:48:40;;;;;;;10.57;5.07;;;;;;;25.48;45.39;100785.06;5034430;28;20112;-75
2022/08/04 04:51:30;;;;;;;12.23;5.03;;;;;;;25.64;45.47;100780.19;5036140;28;20026;-74
2022/08/04 04:54:07;;;;;;;10.02;4.13;;;;;;;25.77;44.94;100786.38;5036082;28;20025;-74
2022/08/04 04:56:35;;;;;;;9.60;8.13;;;;;;;25.91;44.76;100787.09;5036118;28;20049;-74
2022/08/04 04:59:02;;;;;;;6.00;5.05;;;;;;;26.02;44.63;100785.28;5034568;28;20076;-74
2022/08/04 05:01:49;;;;;;;6.65;4.68;;;;;;;26.16;44.78;100786.00;5034470;28;20025;-74
2022/08/04 05:04:48;;;;;;;7.22;4.97;;;;;;;26.28;44.86;100785.84;5035941;28;20036;-74
2022/08/04 05:07:51;;;;;;;4.90;4.18;;;;;;;26.38;44.78;100796.75;5035791;28;20021;-74
2022/08/04 05:10:50;;;;;;;6.43;4.53;;;;;;;26.44;44.91;100790.00;5035627;28;20021;-74
2022/08/04 05:13:32;;;;;;;6.82;4.78;;;;;;;26.57;44.74;100792.56;5035761;28;20025;-75
2022/08/04 05:16:30;;;;;;;4.47;3.97;;;;;;;26.61;45.07;100792.22;5034368;28;20473;-74
2022/08/04 05:19:27;;;;;;;6.88;5.00;;;;;;;26.66;45.16;100792.66;5034360;28;20029;-74
2022/08/04 05:22:02;;;;;;;4.78;4.28;;;;;;;26.71;44.55;100793.13;5035472;28;20029;-75
2022/08/04 05:24:31;;;;;;;7.10;4.53;;;;;;;26.83;44.25;100793.97;5034468;28;20110;-74
2022/08/04 05:27:04;;;;;;;6.72;5.70;;;;;;;26.99;44.37;100796.22;5034279;28;20501;-75
2022/08/04 05:29:41;;;;;;;10.23;4.70;;;;;;;27.11;44.24;100795.22;5035422;28;20044;-74
2022/08/04 05:32:15;;;;;;;11.30;5.63;;;;;;;27.26;44.08;100795.78;5035433;28;20452;-74
2022/08/04 05:34:43;;;;;;;8.85;5.05;;;;;;;27.41;43.67;100785.50;5035246;28;20033;-75
2022/08/04 05:37:15;;;;;;;7.88;4.30;;;;;;;27.57;43.21;100790.41;5033674;28;20049;-74
2022/08/04 05:39:48;;;;;;;8.68;4.60;;;;;;;27.65;43.30;100794.19;5035141;28;20425;-74
2022/08/04 05:42:14;;;;;;;9.15;4.75;;;;;;;27.77;42.90;100792.31;5035088;28;20029;-74
2022/08/04 05:44:41;;;;;;;7.53;5.22;;;;;;;27.90;42.91;100792.06;5035017;28;20033;-74
2022/08/04 05:47:10;;;;;;;5.40;4.45;;;;;;;28.00;42.44;100792.94;5035062;28;20105;-74
2022/08/04 05:49:37;;;;;;;3.60;3.08;;;;;;;28.13;41.82;100788.19;5033691;28;20025;-74
2022/08/04 05:52:05;;;;;;;4.95;3.35;;;;;;;28.27;41.34;100795.03;5035092;28;20021;-74
2022/08/04 05:54:33;;;;;;;5.30;4.20;;;;;;;28.37;41.19;100793.28;5034983;28;20461;-73
2022/08/04 05:56:59;;;;;;;4.97;3.90;;;;;;;28.45;41.11;100796.13;5034946;28;20037;-72
2022/08/04 05:59:25;;;;;;;6.10;4.47;;;;;;;28.53;40.97;100800.84;5034767;28;20112;-73
2022/08/04 06:01:55;;;;;;;5.88;4.60;;;;;;;28.60;41.04;100799.28;5033524;28;20083;-73
2022/08/04 06:04:42;;;;;;;5.85;4.25;;;;;;;28.66;40.82;100796.03;5033366;28;20075;-73
2022/08/04 06:07:10;;;;;;;4.80;4.30;;;;;;;28.75;40.65;100798.88;5034195;28;20453;-74
2022/08/04 06:09:39;;;;;;;5.55;4.30;;;;;;;28.84;40.26;100798.88;5034631;28;20358;-73
2022/08/04 06:12:40;;;;;;;7.65;4.53;;;;;;;28.93;40.34;100800.75;5033319;28;20087;-73
2022/08/04 06:15:12;;;;;;;5.00;3.97;;;;;;;28.93;40.35;100808.03;5027667;28;20385;-73
2022/08/04 06:17:47;;;;;;;4.80;4.30;;;;;;;29.01;40.20;100800.09;5033429;28;20529;-74
2022/08/04 06:20:15;;;;;;;6.68;4.60;;;;;;;29.05;40.30;100806.91;5033167;28;20025;-73
2022/08/04 06:22:43;;;;;;;5.13;4.28;;;;;;;29.16;39.99;100804.03;5034328;28;20029;-73
2022/08/04 06:25:14;;;;;;;5.20;3.97;;;;;;;29.26;39.51;100800.50;5034545;28;20025;-71
2022/08/04 06:27:41;;;;;;;7.05;4.75;;;;;;;29.32;39.88;100802.59;5034413;28;20132;-64
2022/08/04 06:30:12;;;;;;;6.10;4.30;;;;;;;29.34;39.76;100800.63;5034438;28;20026;-70
2022/08/04 06:32:47;;;;;;;5.20;3.70;;;;;;;29.48;39.82;100796.59;5034334;28;20065;-70
2022/08/04 06:35:16;;;;;;;5.00;3.75;;;;;;;29.58;39.62;100795.63;5002112;28;20088;-70
2022/08/04 06:37:43;;;;;;;5.60;4.30;;;;;;;29.66;39.64;100793.03;5033859;28;20589;-70
2022/08/04 06:40:11;;;;;;;8.85;4.93;;;;;;;29.74;39.71;100788.75;5034069;28;20030;-67
2022/08/04 06:42:37;;;;;;;4.90;4.07;;;;;;;29.79;39.74;100794.56;5032906;28;20124;-70
2022/08/04 06:45:04;;;;;;;6.03;4.10;;;;;;;29.87;39.44;100787.41;5016524;28;20025;-69
2022/08/04 06:47:31;;;;;;;5.00;4.18;;;;;;;29.95;39.30;100789.38;5033802;28;20033;-69
2022/08/04 06:49:57;;;;;;;5.07;4.40;;;;;;;30.01;39.12;100787.94;5033821;28;20076;-69
2022/08/04 06:52:23;;;;;;;4.43;4.03;;;;;;;30.09;39.02;100783.47;5033820;28;20025;-69
2022/08/04 06:54:52;;;;;;;4.97;3.60;;;;;;;30.15;39.21;100782.91;5032642;28;20055;-68
2022/08/04 06:57:21;;;;;;;3.90;3.50;;;;;;;30.23;38.87;100792.97;5034253;28;20481;-69
2022/08/04 06:59:53;;;;;;;4.82;3.75;;;;;;;30.29;38.99;100788.84;5032296;28;20029;-69
2022/08/04 07:02:26;;;;;;;4.68;3.80;;;;;;;30.36;38.45;100793.50;5032610;28;20033;-69
2022/08/04 07:04:52;;;;;;;5.95;4.15;;;;;;;30.45;38.60;100794.44;5033658;28;20049;-69
2022/08/04 07:07:18;;;;;;;4.57;4.18;;;;;;;30.53;38.34;100794.53;5033328;28;20061;-68
2022/08/04 07:09:46;;;;;;;5.50;4.60;;;;;;;30.58;37.78;100791.38;5033277;28;20527;-69
2022/08/04 07:12:12;;;;;;;4.35;3.95;;;;;;;30.66;37.87;100794.16;5033516;28;20064;-69
2022/08/04 07:14:39;;;;;;;6.68;4.55;;;;;;;30.73;37.53;100797.13;5032108;28;20053;-69
2022/08/04 07:17:08;;;;;;;4.57;3.97;;;;;;;30.83;37.50;100790.63;5032167;28;20079;-70
2022/08/04 07:19:35;;;;;;;4.57;4.18;;;;;;;30.91;37.36;100789.84;5032035;28;20026;-69
2022/08/04 07:22:02;;;;;;;5.28;4.20;;;;;;;31.00;37.18;100797.09;5033378;28;20025;-69
2022/08/04 07:24:31;;;;;;;3.95;3.58;;;;;;;31.09;37.58;100795.28;5032107;28;20029;-69
2022/08/04 07:26:57;;;;;;;4.63;3.63;;;;;;;31.07;37.45;100789.16;5032094;28;20025;-69
2022/08/04 07:29:23;;;;;;;5.07;4.35;;;;;;;31.11;36.13;100785.13;5033348;28;20025;-70
2022/08/04 07:31:50;;;;;;;7.35;4.65;;;;;;;31.17;36.43;100793.50;5033452;28;20024;-70
2022/08/04 07:34:18;;;;;;;4.82;4.35;;;;;;;31.22;36.54;100784.03;5019091;28;20033;-69
2022/08/04 07:36:43;;;;;;;7.50;4.18;;;;;;;31.24;36.54;100787.41;5036134;28;20053;-69
2022/08/04 07:39:09;;;;;;;7.97;3.50;;;;;;;31.28;36.78;100786.09;5037533;28;20024;-69
2022/08/04 07:41:35;;;;;;;4.00;3.63;;;;;;;31.30;36.57;100784.13;5037431;28;20386;-70
2022/08/04 07:44:02;;;;;;;4.25;3.85;;;;;;;31.25;36.08;100783.72;5037567;28;20373;-70
2022/08/04 07:46:28;;;;;;;4.13;3.42;;;;;;;31.29;36.27;100786.00;5036201;28;20037;-69
2022/08/04 07:48:54;;;;;;;4.30;3.65;;;;;;;31.37;35.28;100785.19;5035992;28;20027;-69
2022/08/04 07:51:20;;;;;;;4.03;3.67;;;;;;;31.52;35.45;100782.75;5037617;28;20029;-69
2022/08/04 07:53:46;;;;;;;4.85;4.38;;;;;;;31.59;35.19;100783.81;5036060;28;20033;-69
2022/08/04 07:56:14;;;;;;;4.28;3.88;;;;;;;31.59;35.12;100776.50;5037102;28;20037;-70
2022/08/04 07:58:39;;;;;;;5.47;3.78;;;;;;;31.67;34.77;100775.72;5037077;28;20539;-69
2022/08/04 08:01:05;;;;;;;5.78;3.85;;;;;;;31.75;34.52;100780.34;5035918;28;20037;-69
2022/08/04 08:03:31;;;;;;;3.95;3.55;;;;;;;31.83;34.61;100778.53;5035773;28;20033;-69
2022/08/04 08:05:57;;;;;;;4.35;3.80;;;;;;;31.92;34.55;100771.31;5019184;28;20493;-69
2022/08/04 08:08:22;;;;;;;4.00;3.25;;;;;;;32.00;34.78;100776.78;5036739;28;20029;-69
2022/08/04 08:10:47;;;;;;;4.90;3.50;;;;;;;32.05;34.27;100771.72;5035500;28;20033;-69
2022/08/04 08:13:17;;;;;;;5.05;3.85;;;;;;;32.07;33.66;100774.25;5019054;28;20026;-69
2022/08/04 08:15:45;;;;;;;6.03;4.10;;;;;;;32.01;34.13;100770.34;5036705;28;20025;-69
2022/08/04 08:18:11;;;;;;;6.25;4.70;;;;;;;31.96;33.74;100772.69;5036590;28;20437;-68
2022/08/04 08:20:37;;;;;;;3.92;3.60;;;;;;;31.95;32.99;100776.41;5036470;28;20055;-69
2022/08/04 08:23:03;;;;;;;4.93;3.53;;;;;;;32.03;32.13;100779.16;5002786;28;20034;-69
2022/08/04 08:25:31;;;;;;;5.70;3.38;;;;;;;32.16;32.53;100770.56;5035259;28;20124;-69
2022/08/04 08:27:56;;;;;;;5.88;3.65;;;;;;;32.25;32.40;100769.59;5036576;28;20028;-69
2022/08/04 08:30:23;;;;;;;3.78;3.38;;;;;;;32.32;31.81;100767.91;5036487;28;20029;-69
2022/08/04 08:32:48;;;;;;;5.03;3.88;;;;;;;32.33;32.44;100774.19;5036464;28;20036;-68
2022/08/04 08:35:14;;;;;;;4.30;3.90;;;;;;;32.44;32.48;100764.88;5036341;28;20025;-68
2022/08/04 08:37:47;;;;;;;3.78;3.33;;;;;;;32.53;32.26;100764.75;5036261;28;20528;-68
2022/08/04 08:40:37;;;;;;;5.55;3.30;;;;;;;32.65;32.30;100772.63;5051667;28;20369;-69
2022/08/04 08:43:21;;;;;;;7.07;3.80;;;;;;;32.69;31.68;100769.38;5036222;28;20021;-67
2022/08/04 08:46:05;;;;;;;5.70;3.63;;;;;;;32.75;32.88;100773.28;5036284;28;20021;-68
2022/08/04 08:48:52;;;;;;;4.32;3.53;;;;;;;32.81;31.69;100778.06;5036014;28;20435;-69
2022/08/04 08:51:35;;;;;;;4.40;3.65;;;;;;;32.83;32.48;100776.03;5036404;28;20083;-69
2022/08/04 08:54:16;;;;;;;3.60;3.30;;;;;;;32.86;32.66;100771.09;5034528;28;20036;-68
2022/08/04 08:57:07;;;;;;;4.88;3.38;;;;;;;32.90;32.39;100770.75;5036052;28;20025;-68
2022/08/04 09:00:09;;;;;;;5.05;3.22;;;;;;;32.99;32.01;100769.78;5035991;28;20108;-69
2022/08/04 09:03:05;;;;;;;3.47;3.17;;;;;;;33.05;33.31;100769.09;5036073;28;20017;-68
2022/08/04 09:05:36;;;;;;;3.78;3.17;;;;;;;33.05;32.93;100767.22;5035828;28;20025;-69
2022/08/04 09:08:08;;;;;;;3.75;3.45;;;;;;;33.00;32.28;100764.19;5034582;28;20115;-69
2022/08/04 09:10:55;;;;;;;9.85;3.38;;;;;;;32.99;32.45;100770.63;5035768;28;20462;-68
2022/08/04 09:13:38;;;;;;;5.95;3.50;;;;;;;33.00;32.32;100761.47;5035900;28;20388;-69
2022/08/04 09:16:04;;;;;;;4.85;3.30;;;;;;;33.04;31.79;100759.25;5035734;28;20500;-69
2022/08/04 09:19:08;;;;;;;5.43;3.30;;;;;;;33.16;30.12;100755.16;5035686;28;20112;-68
2022/08/04 09:21:46;;;;;;;11.25;3.67;;;;;;;33.26;32.13;100758.53;5035726;28;20298;-68
2022/08/04 09:24:21;;;;;;;3.40;3.10;;;;;;;33.28;31.87;100758.38;5035696;28;20041;-68
2022/08/04 09:27:00;;;;;;;4.20;3.15;;;;;;;33.27;29.41;100754.78;5035516;28;20017;-69
2022/08/04 09:29:57;;;;;;;3.65;3.20;;;;;;;33.20;30.19;100766.56;5035501;28;20025;-68
2022/08/04 09:32:40;;;;;;;4.15;2.83;;;;;;;33.53;30.04;100759.22;5035197;28;20104;-68
2022/08/04 09:35:20;;;;;;;3.53;3.22;;;;;;;33.65;30.20;100754.25;5035313;28;20421;-69
2022/08/04 09:38:25;;;;;;;3.80;3.45;;;;;;;33.71;31.26;100751.66;5033790;28;20060;-68
2022/08/04 09:41:03;;;;;;;4.88;3.33;;;;;;;33.67;30.44;100746.75;5035417;28;20369;-69
2022/08/04 09:44:04;;;;;;;3.47;3.17;;;;;;;33.72;31.74;100750.66;5034670;28;20021;-67
2022/08/04 09:46:42;;;;;;;4.55;3.30;;;;;;;33.71;31.32;100748.09;5024532;28;20048;-69
2022/08/04 09:49:15;;;;;;;5.97;3.40;;;;;;;33.67;30.75;100741.28;5035086;28;20033;-69
2022/08/04 09:51:52;;;;;;;4.60;2.90;;;;;;;33.69;31.23;100739.25;5035022;28;20478;-68
2022/08/04 09:54:52;;;;;;;4.03;2.80;;;;;;;33.73;31.85;100746.06;5035124;28;20469;-68
2022/08/04 09:57:37;;;;;;;4.53;3.10;;;;;;;33.81;31.07;100748.75;5034623;28;20434;-68
2022/08/04 10:00:12;;;;;;;4.05;3.20;;;;;;;33.77;30.17;100741.97;5023584;28;20042;-69
2022/08/04 10:02:59;;;;;;;3.92;3.30;;;;;;;33.80;30.22;100750.63;5034881;28;20029;-68
2022/08/04 10:05:39;;;;;;;4.45;2.97;;;;;;;33.88;30.69;100747.03;5033348;28;20091;-68
2022/08/04 10:08:36;;;;;;;3.25;2.95;;;;;;;33.97;30.55;100742.41;5034873;28;20083;-69
2022/08/04 10:11:11;;;;;;;3.33;3.03;;;;;;;34.03;31.00;100748.03;5034290;28;20361;-68
2022/08/04 10:13:55;;;;;;;3.40;3.03;;;;;;;34.04;31.47;100738.81;5033279;28;20030;-68
2022/08/04 10:16:35;;;;;;;4.20;3.08;;;;;;;34.05;31.69;100736.94;5033379;28;20123;-68
2022/08/04 10:19:06;;;;;;;4.60;2.92;;;;;;;34.01;31.55;100730.16;5034441;28;20021;-67
2022/08/04 10:22:00;;;;;;;4.03;2.80;;;;;;;34.09;30.52;100730.09;5034258;28;20593;-67
2022/08/04 10:24:46;;;;;;;4.32;2.92;;;;;;;34.14;31.12;100724.97;5034296;28;20026;-68
2022/08/04 10:27:32;;;;;;;3.92;3.00;;;;;;;34.14;31.68;100727.69;5034434;28;20026;-68
2022/08/04 10:30:02;;;;;;;3.42;2.85;;;;;;;34.04;30.67;100727.06;5033189;28;20120;-68
2022/08/04 10:32:44;;;;;;;3.13;2.70;;;;;;;34.07;28.04;100726.69;5034391;28;20021;-68
2022/08/04 10:35:11;;;;;;;3.33;2.80;;;;;;;34.18;30.55;100725.44;5034400;28;20060;-68
2022/08/04 10:37:49;;;;;;;3.55;2.50;;;;;;;34.24;30.35;100716.56;5032719;28;20041;-68
2022/08/04 10:40:35;;;;;;;3.63;2.90;;;;;;;34.20;29.59;100716.06;5034207;28;20018;-68
2022/08/04 10:43:16;;;;;;;3.03;2.63;;;;;;;34.21;31.38;100716.91;5033911;28;20602;-68
2022/08/04 10:46:25;;;;;;;3.30;3.00;;;;;;;34.24;29.18;100711.13;5034159;28;20473;-68
2022/08/04 10:48:57;;;;;;;3.10;2.78;;;;;;;34.30;31.39;100721.28;5021692;28;20033;-69
2022/08/04 10:51:47;;;;;;;4.63;2.70;;;;;;;34.29;30.14;100709.53;5033855;28;20068;-68
2022/08/04 10:54:24;;;;;;;4.90;2.80;;;;;;;34.27;28.66;100710.72;5034116;28;20071;-68
2022/08/04 10:56:55;;;;;;;7.35;3.08;;;;;;;34.27;30.71;100711.59;5034070;28;20037;-67
2022/08/04 10:59:46;;;;;;;3.08;2.75;;;;;;;34.43;30.98;100713.38;5033699;28;20060;-71
2022/08/04 11:02:33;;;;;;;5.75;3.33;;;;;;;34.44;31.53;100712.34;5022811;28;20445;-70
2022/08/04 11:05:16;;;;;;;4.47;2.90;;;;;;;34.46;32.01;100710.28;5033794;28;20103;-71
2022/08/04 11:07:46;;;;;;;7.93;3.20;;;;;;;34.51;31.22;100709.75;5032186;28;20017;-71
2022/08/04 11:10:13;;;;;;;5.53;3.10;;;;;;;34.46;31.46;100709.44;5032485;28;20029;-71
2022/08/04 11:12:41;;;;;;;3.78;2.45;;;;;;;34.20;32.01;100710.63;5032435;28;20057;-71
2022/08/04 11:15:12;;;;;;;6.22;3.03;;;;;;;34.45;31.85;100705.84;5033732;28;20377;-71
2022/08/04 11:17:42;;;;;;;3.75;2.85;;;;;;;34.43;31.65;100699.75;5034145;28;20028;-70
2022/08/04 11:20:26;;;;;;;5.82;3.10;;;;;;;34.48;32.80;100708.25;5033673;28;20468;-71
2022/08/04 11:23:07;;;;;;;3.83;2.92;;;;;;;34.52;31.41;100701.41;5033672;28;20034;-70
2022/08/04 11:26:03;;;;;;;4.72;2.50;;;;;;;34.61;29.71;100701.34;5033699;28;20034;-70
2022/08/04 11:28:58;;;;;;;5.95;2.90;;;;;;;34.72;32.42;100703.66;5033495;28;20033;-71
2022/08/04 11:31:32;;;;;;;4.68;3.00;;;;;;;34.74;32.13;100707.03;5033659;28;20048;-70
2022/08/04 11:34:02;;;;;;;3.78;3.13;;;;;;;34.76;31.31;100697.66;5032358;28;20083;-70
2022/08/04 11:36:30;;;;;;;3.80;2.85;;;;;;;34.85;32.26;100690.22;5033335;28;20025;-69
2022/08/04 11:39:17;;;;;;;3.42;3.13;;;;;;;34.91;32.52;100692.25;5033387;28;20022;-70
2022/08/04 11:42:22;;;;;;;5.55;3.20;;;;;;;34.91;33.15;100692.25;5033477;28;20022;-70
2022/08/04 11:44:54;;;;;;;9.43;3.15;;;;;;;34.91;30.50;100692.25;5030032;28;20033;-70
2022/08/04 11:47:23;;;;;;;3.67;2.75;;;;;;;34.97;30.94;100691.47;5033263;28;20083;-70
2022/08/04 11:49:59;;;;;;;3.78;2.80;;;;;;;35.05;31.06;100691.44;5033339;28;20465;-70
2022/08/04 11:52:27;;;;;;;4.22;3.00;;;;;;;35.04;32.13;100706.13;5033439;28;20476;-70
2022/08/04 11:54:54;;;;;;;3.55;2.85;;;;;;;35.07;31.15;100698.59;5033331;28;20025;-70
2022/08/04 11:57:21;;;;;;;3.78;2.92;;;;;;;35.11;32.21;100697.19;5033468;28;20025;-69
2022/08/04 11:59:48;;;;;;;3.20;2.90;;;;;;;35.07;32.70;100684.94;5033109;28;20022;-70
2022/08/04 12:02:25;;;;;;;4.53;3.30;;;;;;;34.91;30.86;100688.63;5033044;28;20473;-69
2022/08/04 12:04:59;;;;;;;3.40;3.10;;;;;;;34.87;31.52;100688.19;5031957;28;20048;-69
2022/08/04 12:07:39;;;;;;;3.92;3.50;;;;;;;34.94;30.29;100689.13;5031665;28;20025;-69
2022/08/04 12:10:21;;;;;;;3.47;3.17;;;;;;;35.11;31.93;100686.25;5032126;28;20026;-69
2022/08/04 12:13:09;;;;;;;3.23;2.93;;;;;;;35.25;31.28;100696.38;5033123;28;20045;-70